createdAt,value
2023-02-14T00:01:28.494Z,16.76
2023-02-14T00:04:30.533Z,16.72
2023-02-14T00:07:33.026Z,16.76
2023-02-14T00:10:35.553Z,16.77
2023-02-14T00:13:37.799Z,16.73
2023-02-14T00:16:39.834Z,16.67
2023-02-14T00:19:43.408Z,16.57
2023-02-14T00:22:45.427Z,16.55
2023-02-14T00:25:47.387Z,16.55
2023-02-14T00:28:49.416Z,16.53
2023-02-14T00:31:51.999Z,16.50
2023-02-14T00:34:54.057Z,16.53
2023-02-14T00:37:56.136Z,16.50
2023-02-14T00:40:58.525Z,16.50
2023-02-14T00:44:01.049Z,16.44
2023-02-14T00:47:03.152Z,16.39
2023-02-14T00:50:05.539Z,16.39
2023-02-14T00:53:07.656Z,16.30
2023-02-14T00:56:10.504Z,16.35
2023-02-14T00:59:12.998Z,16.17
2023-02-14T01:02:17.075Z,16.27
2023-02-14T01:05:19.560Z,16.35
2023-02-14T01:08:21.689Z,16.34
2023-02-14T01:11:25.403Z,16.28
2023-02-14T01:14:28.335Z,16.33
2023-02-14T01:17:30.499Z,16.32
2023-02-14T01:20:33.258Z,16.19
2023-02-14T01:23:35.226Z,16.11
2023-02-14T01:26:37.371Z,16.08
2023-02-14T01:29:39.385Z,15.96
2023-02-14T01:32:42.529Z,15.95
2023-02-14T01:35:44.521Z,15.94
2023-02-14T01:38:47.313Z,15.88
2023-02-14T01:41:50.215Z,15.92
2023-02-14T01:45:20.000Z,16.02
2023-02-14T01:48:23.363Z,15.83
2023-02-14T01:51:25.484Z,15.83
2023-02-14T01:54:31.739Z,15.74
2023-02-14T01:57:43.829Z,15.84
2023-02-14T02:00:59.446Z,15.76
2023-02-14T02:04:12.900Z,15.75
2023-02-14T02:07:19.565Z,15.59
2023-02-14T02:10:21.998Z,15.63
2023-02-14T02:13:25.460Z,15.51
2023-02-14T02:16:55.764Z,15.40
2023-02-14T02:20:31.656Z,15.32
2023-02-14T02:23:45.373Z,15.29
2023-02-14T02:26:47.436Z,15.40
2023-02-14T02:30:07.904Z,15.30
2023-02-14T02:33:12.768Z,15.32
2023-02-14T02:36:30.081Z,15.25
2023-02-14T02:39:51.151Z,15.32
2023-02-14T02:43:15.490Z,15.24
2023-02-14T02:46:48.346Z,15.16
2023-02-14T02:50:18.011Z,15.19
2023-02-14T02:53:35.102Z,15.04
2023-02-14T02:56:49.932Z,14.97
2023-02-14T02:59:57.529Z,14.92
2023-02-14T03:03:18.128Z,14.92
2023-02-14T03:06:20.186Z,14.92
2023-02-14T03:09:28.011Z,15.06
2023-02-14T03:12:39.086Z,15.02
2023-02-14T03:15:59.048Z,15.09
2023-02-14T03:19:10.830Z,15.12
2023-02-14T03:22:30.224Z,15.00
2023-02-14T03:25:43.019Z,15.16
2023-02-14T03:28:59.014Z,15.20
2023-02-14T03:32:23.016Z,15.19
2023-02-14T03:35:46.705Z,15.09
2023-02-14T03:39:08.178Z,15.11
2023-02-14T03:42:25.526Z,15.09
2023-02-14T03:45:40.832Z,15.09
2023-02-14T03:48:44.515Z,15.17
2023-02-14T03:51:50.808Z,15.21
2023-02-14T03:54:56.674Z,15.24
2023-02-14T03:58:12.692Z,15.33
2023-02-14T04:01:19.224Z,15.28
2023-02-14T04:04:25.458Z,15.34
2023-02-14T04:07:27.570Z,15.30
2023-02-14T04:10:29.659Z,15.13
2023-02-14T04:13:32.186Z,15.19
2023-02-14T04:16:54.180Z,15.28
2023-02-14T04:19:56.949Z,15.17
2023-02-14T04:22:59.188Z,15.06
2023-02-14T04:26:03.799Z,15.12
2023-02-14T04:29:05.803Z,15.12
2023-02-14T04:32:11.038Z,15.07
2023-02-14T04:35:13.205Z,15.16
2023-02-14T04:38:15.455Z,15.27
2023-02-14T04:41:17.551Z,15.41
2023-02-14T04:44:20.521Z,15.34
2023-02-14T04:47:22.544Z,15.34
2023-02-14T04:50:26.066Z,15.37
2023-02-14T04:53:27.993Z,15.39
2023-02-14T04:56:30.129Z,15.39
2023-02-14T04:59:32.099Z,15.27
2023-02-14T05:02:34.128Z,15.13
2023-02-14T05:05:36.175Z,15.23
2023-02-14T05:08:38.243Z,15.27
2023-02-14T05:11:40.249Z,15.17
2023-02-14T05:14:42.296Z,15.17
2023-02-14T05:17:44.425Z,15.20
2023-02-14T05:20:50.062Z,15.03
2023-02-14T05:23:52.025Z,14.93
2023-02-14T05:26:54.071Z,15.49
2023-02-14T05:29:56.134Z,15.47
2023-02-14T05:32:58.343Z,15.31
2023-02-14T05:36:03.602Z,16.27
2023-02-14T05:39:05.727Z,17.18
2023-02-14T05:45:10.905Z,19.05
2023-02-14T05:48:13.487Z,19.89
2023-02-14T05:51:15.580Z,20.45
2023-02-14T05:54:17.614Z,20.26
2023-02-14T05:57:19.724Z,20.06
2023-02-14T06:00:24.043Z,19.82
2023-02-14T06:03:26.389Z,20.00
2023-02-14T06:06:28.448Z,21.50
2023-02-14T06:09:30.574Z,21.45
2023-02-14T06:12:32.998Z,21.23
2023-02-14T06:15:36.335Z,22.02
2023-02-14T06:18:39.224Z,22.16
2023-02-14T06:21:41.207Z,20.89
2023-02-14T06:24:43.268Z,21.69
2023-02-14T06:27:45.942Z,21.92
2023-02-14T06:30:48.845Z,21.11
2023-02-14T06:33:52.510Z,22.39
2023-02-14T06:36:54.621Z,22.30
2023-02-14T06:39:56.694Z,21.23
2023-02-14T06:42:58.715Z,22.14
2023-02-14T06:46:01.227Z,22.86
2023-02-14T06:49:03.274Z,22.41
2023-02-14T06:52:05.665Z,22.77
2023-02-14T06:55:08.047Z,22.61
2023-02-14T06:58:10.046Z,21.97
2023-02-14T07:01:12.085Z,22.68
2023-02-14T07:04:15.217Z,22.36
2023-02-14T07:07:17.212Z,22.51
2023-02-14T07:10:19.987Z,23.11
2023-02-14T07:13:22.214Z,23.14
2023-02-14T07:16:24.500Z,22.45
2023-02-14T07:19:26.557Z,22.90
2023-02-14T07:22:30.311Z,23.08
2023-02-14T07:25:32.623Z,22.78
2023-02-14T07:28:34.686Z,22.69
2023-02-14T07:31:36.932Z,23.13
2023-02-14T07:34:39.174Z,22.71
2023-02-14T07:37:41.296Z,22.29
2023-02-14T07:40:43.369Z,22.86
2023-02-14T07:43:45.297Z,22.99
2023-02-14T07:46:47.347Z,21.92
2023-02-14T07:49:49.366Z,22.12
2023-02-14T07:52:51.422Z,22.41
2023-02-14T07:55:53.797Z,21.97
2023-02-14T07:58:55.828Z,22.52
2023-02-14T08:01:58.245Z,22.94
2023-02-14T08:05:00.403Z,22.69
2023-02-14T08:08:02.606Z,23.34
2023-02-14T08:11:04.666Z,22.58
2023-02-14T08:14:06.773Z,22.92
2023-02-14T08:17:10.323Z,23.20
2023-02-14T08:20:13.458Z,23.27
2023-02-14T08:23:17.915Z,22.82
2023-02-14T08:26:20.294Z,23.16
2023-02-14T08:29:22.327Z,23.07
2023-02-14T08:32:24.444Z,22.55
2023-02-14T08:35:26.563Z,22.94
2023-02-14T08:38:29.215Z,23.01
2023-02-14T08:41:31.757Z,22.73
2023-02-14T08:44:33.736Z,22.99
2023-02-14T08:47:36.837Z,22.85
2023-02-14T08:50:39.854Z,22.61
2023-02-14T08:53:42.889Z,22.83
2023-02-14T08:56:45.063Z,22.65
2023-02-14T08:59:47.402Z,22.59
2023-02-14T09:02:53.196Z,22.87
2023-02-14T09:06:02.816Z,23.28
2023-02-14T09:09:06.470Z,22.79
2023-02-14T09:12:10.319Z,23.08
2023-02-14T09:15:12.787Z,23.22
2023-02-14T09:18:16.310Z,22.87
2023-02-14T09:21:21.506Z,23.26
2023-02-14T09:24:23.556Z,22.92
2023-02-14T09:27:25.642Z,23.00
2023-02-14T09:30:27.871Z,22.57
2023-02-14T09:33:30.047Z,21.53
2023-02-14T09:36:51.139Z,21.00
2023-02-14T09:39:53.274Z,20.89
2023-02-14T09:43:01.831Z,20.82
2023-02-14T09:46:07.641Z,20.63
2023-02-14T09:49:15.512Z,20.51
2023-02-14T09:52:20.023Z,20.20
2023-02-14T09:55:22.597Z,19.88
2023-02-14T09:58:40.025Z,21.23
2023-02-14T10:02:32.876Z,20.92
2023-02-14T10:05:43.990Z,20.03
2023-02-14T10:09:13.619Z,20.77
2023-02-14T10:12:24.694Z,20.52
2023-02-14T10:15:32.177Z,20.03
2023-02-14T10:18:56.159Z,20.62
2023-02-14T10:22:03.303Z,20.48
2023-02-14T10:25:29.733Z,20.04
2023-02-14T10:28:43.090Z,19.75
2023-02-14T10:31:56.015Z,20.46
2023-02-14T10:35:01.129Z,20.53
2023-02-14T10:38:19.960Z,19.98
2023-02-14T10:42:06.821Z,20.58
2023-02-14T10:45:29.288Z,20.40
2023-02-14T10:48:59.809Z,19.96
2023-02-14T10:52:15.068Z,19.99
2023-02-14T10:55:32.975Z,20.92
2023-02-14T10:58:38.358Z,20.19
2023-02-14T11:01:40.887Z,19.65
2023-02-14T11:04:44.457Z,20.56
2023-02-14T11:07:46.441Z,20.30
2023-02-14T11:10:48.847Z,19.96
2023-02-14T11:13:50.973Z,19.23
2023-02-14T11:16:54.615Z,19.13
2023-02-14T11:20:02.113Z,19.27
2023-02-14T11:23:19.172Z,19.04
2023-02-14T11:26:25.768Z,18.67
2023-02-14T11:29:31.021Z,18.74
2023-02-14T11:32:37.664Z,18.85
2023-02-14T11:35:39.814Z,19.40
2023-02-14T11:38:44.438Z,20.21
2023-02-14T11:41:56.392Z,19.99
2023-02-14T11:44:59.737Z,19.95
2023-02-14T11:48:36.651Z,20.34
2023-02-14T11:51:45.589Z,20.26
2023-02-14T11:54:49.661Z,19.84
2023-02-14T11:57:52.070Z,19.66
2023-02-14T12:00:54.496Z,20.69
2023-02-14T12:04:01.675Z,20.49
2023-02-14T12:07:16.688Z,20.18
2023-02-14T12:10:25.053Z,19.81
2023-02-14T12:13:27.094Z,19.70
2023-02-14T12:16:38.857Z,19.32
2023-02-14T12:19:54.755Z,19.10
2023-02-14T12:23:03.890Z,18.87
2023-02-14T12:26:43.324Z,18.95
2023-02-14T12:29:48.761Z,19.03
2023-02-14T12:32:56.521Z,18.83
2023-02-14T12:36:09.215Z,18.65
2023-02-14T12:39:20.994Z,18.86
2023-02-14T12:42:35.201Z,19.02
2023-02-14T12:45:55.767Z,19.74
2023-02-14T12:49:00.588Z,19.40
2023-02-14T12:52:20.647Z,19.15
2023-02-14T12:55:36.908Z,18.89
2023-02-14T12:58:59.240Z,18.90
2023-02-14T13:02:16.511Z,19.30
2023-02-14T13:05:53.598Z,18.99
2023-02-14T13:09:14.474Z,18.92
2023-02-14T13:12:35.099Z,18.96
2023-02-14T13:15:55.053Z,18.69
2023-02-14T13:19:05.725Z,18.71
2023-02-14T13:22:13.674Z,19.18
2023-02-14T13:25:33.646Z,19.38
2023-02-14T13:28:39.384Z,19.15
2023-02-14T13:31:42.297Z,19.04
2023-02-14T13:34:47.760Z,19.22
2023-02-14T13:37:56.226Z,19.32
2023-02-14T13:41:01.117Z,19.35
2023-02-14T13:44:05.558Z,19.36
2023-02-14T13:47:16.186Z,19.25
2023-02-14T13:50:21.747Z,19.31
2023-02-14T13:53:38.056Z,19.41
2023-02-14T13:56:40.472Z,19.12
2023-02-14T13:59:43.219Z,19.35
2023-02-14T14:03:05.543Z,19.39
2023-02-14T14:06:12.977Z,19.32
2023-02-14T14:09:43.349Z,19.24
2023-02-14T14:12:46.105Z,18.92
2023-02-14T14:16:21.778Z,19.12
2023-02-14T14:19:26.909Z,19.08
2023-02-14T14:22:32.016Z,19.20
2023-02-14T14:25:41.494Z,18.72
2023-02-14T14:28:47.864Z,18.85
2023-02-14T14:31:55.783Z,18.73
2023-02-14T14:35:08.478Z,18.90
2023-02-14T14:38:14.465Z,19.43
2023-02-14T14:41:17.186Z,19.07
2023-02-14T14:44:19.364Z,18.74
2023-02-14T14:47:26.978Z,18.73
2023-02-14T14:50:33.070Z,18.75
2023-02-14T14:53:44.657Z,18.86
2023-02-14T14:57:01.675Z,18.88
2023-02-14T15:00:28.541Z,18.89
2023-02-14T15:03:31.265Z,18.85
2023-02-14T15:06:33.261Z,18.67
2023-02-14T15:09:36.805Z,18.71
2023-02-14T15:12:57.640Z,18.76
2023-02-14T15:16:01.847Z,18.88
2023-02-14T15:19:19.056Z,18.97
2023-02-14T15:22:23.988Z,19.02
2023-02-14T15:25:27.761Z,18.79
2023-02-14T15:28:32.247Z,18.85
2023-02-14T15:31:40.826Z,18.53
2023-02-14T15:34:43.013Z,18.55
2023-02-14T15:37:46.940Z,18.67
2023-02-14T15:40:49.371Z,18.79
2023-02-14T15:43:54.031Z,18.88
2023-02-14T15:47:05.759Z,18.78
2023-02-14T15:50:31.422Z,18.62
2023-02-14T15:53:58.484Z,18.90
2023-02-14T15:57:01.457Z,18.72
2023-02-14T16:00:17.081Z,18.46
2023-02-14T16:03:22.720Z,18.72
2023-02-14T16:06:45.051Z,18.50
2023-02-14T16:09:48.171Z,18.57
2023-02-14T16:13:20.542Z,18.80
2023-02-14T16:16:22.708Z,18.86
2023-02-14T16:19:37.268Z,18.51
2023-02-14T16:22:39.290Z,18.41
2023-02-14T16:25:42.001Z,18.53
2023-02-14T16:28:44.032Z,18.48
2023-02-14T16:32:14.117Z,18.43
2023-02-14T16:35:21.259Z,18.25
2023-02-14T16:38:23.693Z,18.65
2023-02-14T16:41:27.956Z,18.54
2023-02-14T16:44:29.988Z,18.36
2023-02-14T16:47:32.059Z,18.16
2023-02-14T16:50:36.555Z,18.53
2023-02-14T16:53:41.151Z,18.62
2023-02-14T16:56:53.633Z,20.17
2023-02-14T16:59:56.579Z,21.76
2023-02-14T17:03:08.671Z,22.13
2023-02-14T17:06:15.859Z,21.78
2023-02-14T17:09:24.384Z,21.16
2023-02-14T17:12:35.338Z,20.13
2023-02-14T17:15:39.032Z,19.98
2023-02-14T17:18:43.548Z,20.22
2023-02-14T17:21:45.639Z,19.48
2023-02-14T17:24:47.840Z,18.69
2023-02-14T17:27:49.860Z,19.42
2023-02-14T17:30:51.812Z,23.30
2023-02-14T17:33:53.958Z,25.41
2023-02-14T17:36:55.964Z,25.67
2023-02-14T17:40:01.280Z,23.78
2023-02-14T17:43:03.457Z,21.41
2023-02-14T17:46:05.834Z,19.41
2023-02-14T17:49:09.729Z,18.72
2023-02-14T17:52:11.764Z,18.46
2023-02-14T17:55:15.917Z,18.24
2023-02-14T17:58:17.935Z,17.87
2023-02-14T18:01:22.639Z,18.23
2023-02-14T18:04:25.682Z,18.29
2023-02-14T18:07:27.709Z,17.94
2023-02-14T18:10:29.800Z,17.68
2023-02-14T18:13:32.231Z,17.61
2023-02-14T18:16:37.053Z,17.66
2023-02-14T18:19:39.098Z,17.61
2023-02-14T18:22:41.112Z,17.75
2023-02-14T18:25:49.983Z,17.53
2023-02-14T18:28:52.121Z,16.84
2023-02-14T18:31:54.222Z,16.84
2023-02-14T18:34:56.333Z,17.07
2023-02-14T18:37:58.544Z,16.74
2023-02-14T18:41:05.364Z,16.62
2023-02-14T18:44:10.623Z,16.74
2023-02-14T18:47:12.526Z,16.63
2023-02-14T18:50:14.577Z,16.81
2023-02-14T18:53:17.890Z,16.83
2023-02-14T18:56:24.298Z,16.64
2023-02-14T18:59:26.300Z,16.63
2023-02-14T19:02:28.428Z,16.63
2023-02-14T19:05:30.528Z,16.69
2023-02-14T19:08:38.457Z,16.84
2023-02-14T19:11:40.909Z,16.72
2023-02-14T19:14:43.122Z,16.67
2023-02-14T19:17:45.630Z,16.80
2023-02-14T19:20:48.402Z,16.67
2023-02-14T19:23:53.035Z,16.58
2023-02-14T19:26:56.953Z,16.65
2023-02-14T19:29:59.096Z,16.71
2023-02-14T19:33:01.291Z,16.46
2023-02-14T19:36:05.723Z,16.07
2023-02-14T19:39:10.202Z,16.27
2023-02-14T19:42:14.084Z,16.30
2023-02-14T19:45:19.053Z,16.29
2023-02-14T19:48:21.028Z,15.99
2023-02-14T19:51:26.617Z,15.76
2023-02-14T19:54:30.156Z,16.37
2023-02-14T19:57:32.162Z,16.19
2023-02-14T20:00:37.132Z,16.39
2023-02-14T20:03:39.282Z,16.60
2023-02-14T20:06:43.952Z,16.73
2023-02-14T20:09:46.114Z,16.95
2023-02-14T20:12:48.397Z,17.08
2023-02-14T20:15:51.708Z,16.90
2023-02-14T20:18:54.450Z,17.07
2023-02-14T20:21:56.625Z,16.89
2023-02-14T20:25:00.743Z,16.94
2023-02-14T20:28:02.777Z,16.82
2023-02-14T20:31:13.260Z,16.67
2023-02-14T20:34:17.200Z,16.63
2023-02-14T20:37:22.667Z,16.63
2023-02-14T20:40:28.091Z,16.63
2023-02-14T20:43:31.487Z,16.40
2023-02-14T20:46:34.799Z,16.26
2023-02-14T20:49:39.288Z,16.30
2023-02-14T20:52:41.385Z,16.24
2023-02-14T20:55:47.137Z,16.16
2023-02-14T20:58:49.963Z,16.26
2023-02-14T21:01:52.074Z,16.33
2023-02-14T21:04:54.174Z,16.19
2023-02-14T21:07:56.487Z,16.00
2023-02-14T21:11:00.515Z,16.03
2023-02-14T21:14:03.136Z,16.22
2023-02-14T21:17:05.144Z,16.01
2023-02-14T21:20:07.883Z,16.11
2023-02-14T21:23:10.515Z,16.25
2023-02-14T21:26:12.568Z,16.34
2023-02-14T21:29:14.760Z,16.44
2023-02-14T21:32:16.971Z,16.21
2023-02-14T21:35:19.175Z,16.24
2023-02-14T21:38:21.699Z,16.20
2023-02-14T21:41:26.736Z,16.15
2023-02-14T21:44:47.580Z,16.17
2023-02-14T21:48:11.108Z,16.05
2023-02-14T21:51:13.940Z,15.95
2023-02-14T21:54:16.640Z,15.99
2023-02-14T21:57:21.040Z,15.92
2023-02-14T22:00:23.132Z,16.06
2023-02-14T22:03:25.315Z,16.19
2023-02-14T22:06:31.377Z,15.90
2023-02-14T22:09:34.233Z,15.78
2023-02-14T22:12:36.404Z,15.71
2023-02-14T22:15:41.354Z,15.71
2023-02-14T22:18:43.652Z,15.55
2023-02-14T22:25:12.118Z,15.38
2023-02-14T22:28:14.174Z,15.39
2023-02-14T22:31:18.659Z,15.43
2023-02-14T22:34:20.837Z,15.39
2023-02-14T22:37:22.964Z,15.40
2023-02-14T22:40:25.129Z,15.34
2023-02-14T22:43:27.451Z,15.35
2023-02-14T22:46:29.491Z,15.24
2023-02-14T22:49:31.546Z,15.24
2023-02-14T22:52:34.994Z,15.30
2023-02-14T22:55:37.030Z,15.35
2023-02-14T22:58:39.480Z,15.24
2023-02-14T23:01:42.829Z,15.16
2023-02-14T23:04:44.904Z,15.23
2023-02-14T23:07:47.123Z,15.23
2023-02-14T23:10:49.437Z,15.16
2023-02-14T23:14:10.077Z,14.99
2023-02-14T23:17:18.812Z,14.80
2023-02-14T23:20:39.850Z,14.89
2023-02-14T23:23:41.935Z,14.84
2023-02-14T23:26:44.244Z,14.78
2023-02-14T23:29:46.458Z,14.76
2023-02-14T23:32:48.462Z,14.76
2023-02-14T23:35:50.440Z,14.74
2023-02-14T23:38:52.550Z,14.77
2023-02-14T23:41:55.384Z,14.80
2023-02-14T23:45:17.421Z,14.69
2023-02-14T23:48:19.475Z,14.63
2023-02-14T23:51:21.471Z,14.78
2023-02-14T23:54:24.207Z,14.82
2023-02-14T23:57:26.290Z,14.85
